sensor_id;sensor_type;location;lat;lon;timestamp;pressure;altitude;pressure_sealevel;temperature;humidity
75551;BME280;65071;53.082;18.218;2022-12-18T00:02:11;102758.45;;;-3.52;80.71
75551;BME280;65071;53.082;18.218;2022-12-18T00:04:38;102761.97;;;-3.53;80.77
75551;BME280;65071;53.082;18.218;2022-12-18T00:07:04;102762.29;;;-3.49;80.64
75551;BME280;65071;53.082;18.218;2022-12-18T00:09:31;102760.80;;;-3.41;80.41
75551;BME280;65071;53.082;18.218;2022-12-18T00:11:57;102768.15;;;-3.38;80.46
75551;BME280;65071;53.082;18.218;2022-12-18T00:14:24;102770.41;;;-3.34;80.58
75551;BME280;65071;53.082;18.218;2022-12-18T00:16:50;102771.95;;;-3.31;80.34
75551;BME280;65071;53.082;18.218;2022-12-18T00:19:18;102779.86;;;-3.29;80.44
75551;BME280;65071;53.082;18.218;2022-12-18T00:21:44;102782.67;;;-3.30;80.62
75551;BME280;65071;53.082;18.218;2022-12-18T00:24:11;102781.98;;;-3.31;80.78
75551;BME280;65071;53.082;18.218;2022-12-18T00:26:39;102783.03;;;-3.31;80.60
75551;BME280;65071;53.082;18.218;2022-12-18T00:29:13;102785.88;;;-3.34;80.61
75551;BME280;65071;53.082;18.218;2022-12-18T00:31:41;102785.70;;;-3.35;80.50
75551;BME280;65071;53.082;18.218;2022-12-18T00:34:10;102788.71;;;-3.36;80.51
75551;BME280;65071;53.082;18.218;2022-12-18T00:36:40;102792.61;;;-3.39;80.55
75551;BME280;65071;53.082;18.218;2022-12-18T00:39:07;102793.63;;;-3.35;80.41
75551;BME280;65071;53.082;18.218;2022-12-18T00:41:34;102798.88;;;-3.31;80.58
75551;BME280;65071;53.082;18.218;2022-12-18T00:44:19;102798.52;;;-3.30;80.49
75551;BME280;65071;53.082;18.218;2022-12-18T00:46:46;102796.18;;;-3.26;80.34
75551;BME280;65071;53.082;18.218;2022-12-18T00:49:15;102797.21;;;-3.24;80.48
75551;BME280;65071;53.082;18.218;2022-12-18T00:51:42;102798.13;;;-3.28;80.75
75551;BME280;65071;53.082;18.218;2022-12-18T00:54:09;102803.27;;;-3.32;80.54
75551;BME280;65071;53.082;18.218;2022-12-18T00:56:37;102807.01;;;-3.36;80.83
75551;BME280;65071;53.082;18.218;2022-12-18T00:59:04;102812.65;;;-3.37;80.85
75551;BME280;65071;53.082;18.218;2022-12-18T01:01:31;102810.23;;;-3.40;80.38
75551;BME280;65071;53.082;18.218;2022-12-18T01:04:00;102819.19;;;-3.41;80.29
75551;BME280;65071;53.082;18.218;2022-12-18T01:06:27;102824.46;;;-3.41;80.48
75551;BME280;65071;53.082;18.218;2022-12-18T01:08:55;102823.37;;;-3.36;80.33
75551;BME280;65071;53.082;18.218;2022-12-18T01:11:22;102813.84;;;-3.33;80.30
75551;BME280;65071;53.082;18.218;2022-12-18T01:13:48;102822.83;;;-3.34;80.56
75551;BME280;65071;53.082;18.218;2022-12-18T01:16:16;102832.64;;;-3.31;80.47
75551;BME280;65071;53.082;18.218;2022-12-18T01:18:43;102828.75;;;-3.29;80.49
75551;BME280;65071;53.082;18.218;2022-12-18T01:21:14;102828.58;;;-3.29;80.76
75551;BME280;65071;53.082;18.218;2022-12-18T01:23:41;102835.80;;;-3.30;80.94
75551;BME280;65071;53.082;18.218;2022-12-18T01:26:13;102834.77;;;-3.33;80.43
75551;BME280;65071;53.082;18.218;2022-12-18T01:28:41;102837.42;;;-3.35;80.57
75551;BME280;65071;53.082;18.218;2022-12-18T01:31:17;102841.48;;;-3.36;80.77
75551;BME280;65071;53.082;18.218;2022-12-18T01:33:44;102844.68;;;-3.40;80.63
75551;BME280;65071;53.082;18.218;2022-12-18T01:36:16;102847.15;;;-3.41;80.89
75551;BME280;65071;53.082;18.218;2022-12-18T01:38:44;102849.39;;;-3.34;80.26
75551;BME280;65071;53.082;18.218;2022-12-18T01:41:11;102849.73;;;-3.34;80.64
75551;BME280;65071;53.082;18.218;2022-12-18T01:43:49;102850.80;;;-3.34;80.58
75551;BME280;65071;53.082;18.218;2022-12-18T01:46:17;102856.95;;;-3.35;81.02
75551;BME280;65071;53.082;18.218;2022-12-18T01:48:47;102852.38;;;-3.35;80.76
75551;BME280;65071;53.082;18.218;2022-12-18T01:51:16;102850.48;;;-3.37;80.95
75551;BME280;65071;53.082;18.218;2022-12-18T01:53:44;102852.95;;;-3.39;80.81
75551;BME280;65071;53.082;18.218;2022-12-18T01:56:14;102850.66;;;-3.40;80.69
75551;BME280;65071;53.082;18.218;2022-12-18T01:58:58;102859.64;;;-3.41;80.81
75551;BME280;65071;53.082;18.218;2022-12-18T02:01:26;102856.26;;;-3.36;80.66
75551;BME280;65071;53.082;18.218;2022-12-18T02:03:54;102866.27;;;-3.34;80.45
75551;BME280;65071;53.082;18.218;2022-12-18T02:06:29;102871.73;;;-3.34;81.02
75551;BME280;65071;53.082;18.218;2022-12-18T02:09:23;102873.14;;;-3.34;80.81
75551;BME280;65071;53.082;18.218;2022-12-18T02:12:17;102882.29;;;-3.34;80.84
75551;BME280;65071;53.082;18.218;2022-12-18T02:17:19;102884.86;;;-3.28;80.64
75551;BME280;65071;53.082;18.218;2022-12-18T02:20:13;102885.20;;;-3.27;80.46
75551;BME280;65071;53.082;18.218;2022-12-18T02:26:12;102880.61;;;-3.25;80.31
75551;BME280;65071;53.082;18.218;2022-12-18T02:29:09;102884.49;;;-3.25;80.61
75551;BME280;65071;53.082;18.218;2022-12-18T02:31:45;102889.41;;;-3.25;80.50
75551;BME280;65071;53.082;18.218;2022-12-18T02:34:15;102885.71;;;-3.25;80.46
75551;BME280;65071;53.082;18.218;2022-12-18T02:36:43;102882.57;;;-3.27;80.60
75551;BME280;65071;53.082;18.218;2022-12-18T02:39:13;102886.22;;;-3.23;80.45
75551;BME280;65071;53.082;18.218;2022-12-18T02:41:46;102894.81;;;-3.18;80.27
75551;BME280;65071;53.082;18.218;2022-12-18T02:44:14;102903.09;;;-3.19;80.52
75551;BME280;65071;53.082;18.218;2022-12-18T02:46:46;102898.65;;;-3.16;80.40
75551;BME280;65071;53.082;18.218;2022-12-18T02:51:53;102899.14;;;-3.13;80.70
75551;BME280;65071;53.082;18.218;2022-12-18T02:54:45;102898.28;;;-3.14;80.62
75551;BME280;65071;53.082;18.218;2022-12-18T02:57:34;102904.64;;;-3.16;80.95
75551;BME280;65071;53.082;18.218;2022-12-18T03:02:46;102913.50;;;-3.23;80.39
75551;BME280;65071;53.082;18.218;2022-12-18T03:05:22;102912.30;;;-3.26;80.65
75551;BME280;65071;53.082;18.218;2022-12-18T03:07:52;102913.18;;;-3.27;80.79
75551;BME280;65071;53.082;18.218;2022-12-18T03:10:29;102918.73;;;-3.18;80.46
75551;BME280;65071;53.082;18.218;2022-12-18T03:13:06;102919.96;;;-3.18;80.48
75551;BME280;65071;53.082;18.218;2022-12-18T03:15:38;102920.30;;;-3.15;80.42
75551;BME280;65071;53.082;18.218;2022-12-18T03:18:16;102921.48;;;-3.12;80.35
75551;BME280;65071;53.082;18.218;2022-12-18T03:20:45;102924.48;;;-3.11;80.29
75551;BME280;65071;53.082;18.218;2022-12-18T03:23:22;102925.92;;;-3.15;80.54
75551;BME280;65071;53.082;18.218;2022-12-18T03:25:51;102926.27;;;-3.14;80.38
75551;BME280;65071;53.082;18.218;2022-12-18T03:28:22;102930.17;;;-3.19;80.36
75551;BME280;65071;53.082;18.218;2022-12-18T03:30:56;102928.61;;;-3.20;80.54
75551;BME280;65071;53.082;18.218;2022-12-18T03:33:28;102930.23;;;-3.25;80.69
75551;BME280;65071;53.082;18.218;2022-12-18T03:35:57;102940.27;;;-3.27;80.78
75551;BME280;65071;53.082;18.218;2022-12-18T03:38:23;102946.92;;;-3.22;80.64
75551;BME280;65071;53.082;18.218;2022-12-18T03:49:33;102958.27;;;-3.12;80.74
75551;BME280;65071;53.082;18.218;2022-12-18T03:52:19;102962.34;;;-3.13;80.51
75551;BME280;65071;53.082;18.218;2022-12-18T03:54:47;102966.74;;;-3.14;80.67
75551;BME280;65071;53.082;18.218;2022-12-18T03:57:21;102969.38;;;-3.15;80.83
75551;BME280;65071;53.082;18.218;2022-12-18T03:59:53;102959.88;;;-3.15;80.68
75551;BME280;65071;53.082;18.218;2022-12-18T04:02:23;102966.92;;;-3.16;80.79
75551;BME280;65071;53.082;18.218;2022-12-18T04:04:53;102968.88;;;-3.18;80.65
75551;BME280;65071;53.082;18.218;2022-12-18T04:07:23;102965.72;;;-3.19;80.73
75551;BME280;65071;53.082;18.218;2022-12-18T04:09:52;102970.30;;;-3.18;80.30
75551;BME280;65071;53.082;18.218;2022-12-18T04:12:24;102967.73;;;-3.07;80.35
75551;BME280;65071;53.082;18.218;2022-12-18T04:14:52;102970.16;;;-3.01;80.52
75551;BME280;65071;53.082;18.218;2022-12-18T04:17:19;102972.44;;;-3.00;80.40
75551;BME280;65071;53.082;18.218;2022-12-18T04:19:47;102971.88;;;-2.97;80.49
75551;BME280;65071;53.082;18.218;2022-12-18T04:22:13;102972.79;;;-3.00;80.70
75551;BME280;65071;53.082;18.218;2022-12-18T04:24:43;102971.39;;;-3.03;80.47
75551;BME280;65071;53.082;18.218;2022-12-18T04:27:15;102969.98;;;-3.04;80.69
75551;BME280;65071;53.082;18.218;2022-12-18T04:29:46;102978.45;;;-3.04;80.34
75551;BME280;65071;53.082;18.218;2022-12-18T04:32:14;102980.04;;;-3.06;80.64
75551;BME280;65071;53.082;18.218;2022-12-18T04:34:42;102986.92;;;-3.07;80.24
75551;BME280;65071;53.082;18.218;2022-12-18T04:37:09;102989.77;;;-3.10;80.43
75551;BME280;65071;53.082;18.218;2022-12-18T04:39:35;102988.70;;;-3.11;80.53
75551;BME280;65071;53.082;18.218;2022-12-18T04:42:06;102991.19;;;-3.13;80.75
75551;BME280;65071;53.082;18.218;2022-12-18T04:44:34;102995.73;;;-3.08;80.22
75551;BME280;65071;53.082;18.218;2022-12-18T04:47:00;102994.98;;;-3.03;80.26
75551;BME280;65071;53.082;18.218;2022-12-18T04:49:27;103000.63;;;-3.06;80.30
75551;BME280;65071;53.082;18.218;2022-12-18T04:51:54;103005.19;;;-3.05;80.30
75551;BME280;65071;53.082;18.218;2022-12-18T04:54:20;103004.65;;;-3.02;80.43
75551;BME280;65071;53.082;18.218;2022-12-18T04:56:47;103003.23;;;-2.99;80.32
75551;BME280;65071;53.082;18.218;2022-12-18T04:59:13;103005.85;;;-2.97;80.33
75551;BME280;65071;53.082;18.218;2022-12-18T05:01:40;103004.64;;;-2.99;80.16
75551;BME280;65071;53.082;18.218;2022-12-18T05:04:07;103008.87;;;-3.00;80.45
75551;BME280;65071;53.082;18.218;2022-12-18T05:06:33;103008.34;;;-3.01;80.53
75551;BME280;65071;53.082;18.218;2022-12-18T05:09:00;103014.33;;;-3.01;80.16
75551;BME280;65071;53.082;18.218;2022-12-18T05:11:26;103019.63;;;-3.04;80.31
75551;BME280;65071;53.082;18.218;2022-12-18T05:13:53;103015.24;;;-3.06;80.39
75551;BME280;65071;53.082;18.218;2022-12-18T05:16:22;103015.27;;;-3.09;80.19
75551;BME280;65071;53.082;18.218;2022-12-18T05:18:49;103015.28;;;-3.12;79.88
75551;BME280;65071;53.082;18.218;2022-12-18T05:21:15;103023.41;;;-3.16;80.13
75551;BME280;65071;53.082;18.218;2022-12-18T05:23:42;103025.55;;;-3.19;80.22
75551;BME280;65071;53.082;18.218;2022-12-18T05:26:17;103027.63;;;-3.15;79.89
75551;BME280;65071;53.082;18.218;2022-12-18T05:28:44;103035.89;;;-3.12;80.11
75551;BME280;65071;53.082;18.218;2022-12-18T05:31:11;103040.09;;;-3.10;80.20
75551;BME280;65071;53.082;18.218;2022-12-18T05:33:38;103047.29;;;-3.08;79.84
75551;BME280;65071;53.082;18.218;2022-12-18T05:36:06;103055.02;;;-3.07;79.79
75551;BME280;65071;53.082;18.218;2022-12-18T05:38:35;103059.44;;;-3.07;80.17
75551;BME280;65071;53.082;18.218;2022-12-18T05:41:03;103068.78;;;-3.10;80.24
75551;BME280;65071;53.082;18.218;2022-12-18T05:43:30;103073.73;;;-3.13;80.36
75551;BME280;65071;53.082;18.218;2022-12-18T05:45:57;103076.20;;;-3.16;80.25
75551;BME280;65071;53.082;18.218;2022-12-18T05:48:24;103072.73;;;-3.23;80.17
75551;BME280;65071;53.082;18.218;2022-12-18T05:50:51;103075.58;;;-3.28;79.64
75551;BME280;65071;53.082;18.218;2022-12-18T05:53:19;103077.90;;;-3.34;79.95
75551;BME280;65071;53.082;18.218;2022-12-18T05:55:47;103080.02;;;-3.37;79.85
75551;BME280;65071;53.082;18.218;2022-12-18T05:58:14;103084.43;;;-3.38;79.95
75551;BME280;65071;53.082;18.218;2022-12-18T06:00:44;103084.73;;;-3.29;79.76
75551;BME280;65071;53.082;18.218;2022-12-18T06:03:12;103087.89;;;-3.26;79.73
75551;BME280;65071;53.082;18.218;2022-12-18T06:05:42;103091.24;;;-3.29;79.69
75551;BME280;65071;53.082;18.218;2022-12-18T06:08:09;103093.70;;;-3.28;79.73
75551;BME280;65071;53.082;18.218;2022-12-18T06:10:36;103098.79;;;-3.27;79.90
75551;BME280;65071;53.082;18.218;2022-12-18T06:13:03;103099.00;;;-3.31;79.90
75551;BME280;65071;53.082;18.218;2022-12-18T06:15:30;103101.10;;;-3.30;80.09
75551;BME280;65071;53.082;18.218;2022-12-18T06:17:56;103100.25;;;-3.36;79.95
75551;BME280;65071;53.082;18.218;2022-12-18T06:20:23;103104.66;;;-3.40;80.13
75551;BME280;65071;53.082;18.218;2022-12-18T06:22:49;103109.45;;;-3.44;79.82
75551;BME280;65071;53.082;18.218;2022-12-18T06:25:16;103112.80;;;-3.50;79.75
75551;BME280;65071;53.082;18.218;2022-12-18T06:27:43;103116.17;;;-3.57;79.98
75551;BME280;65071;53.082;18.218;2022-12-18T06:30:10;103125.52;;;-3.63;79.84
75551;BME280;65071;53.082;18.218;2022-12-18T06:32:37;103129.93;;;-3.68;79.70
75551;BME280;65071;53.082;18.218;2022-12-18T06:35:04;103131.35;;;-3.71;79.91
75551;BME280;65071;53.082;18.218;2022-12-18T06:37:31;103132.39;;;-3.66;79.65
75551;BME280;65071;53.082;18.218;2022-12-18T06:39:57;103139.95;;;-3.66;79.72
75551;BME280;65071;53.082;18.218;2022-12-18T06:42:24;103142.41;;;-3.66;79.72
75551;BME280;65071;53.082;18.218;2022-12-18T06:44:51;103147.35;;;-3.69;79.64
75551;BME280;65071;53.082;18.218;2022-12-18T06:47:18;103149.98;;;-3.71;79.41
75551;BME280;65071;53.082;18.218;2022-12-18T06:49:44;103155.29;;;-3.78;79.66
75551;BME280;65071;53.082;18.218;2022-12-18T06:52:11;103158.10;;;-3.85;79.80
75551;BME280;65071;53.082;18.218;2022-12-18T06:54:37;103156.88;;;-3.93;79.90
75551;BME280;65071;53.082;18.218;2022-12-18T06:57:04;103163.41;;;-4.00;79.86
75551;BME280;65071;53.082;18.218;2022-12-18T06:59:31;103168.52;;;-4.07;79.78
75551;BME280;65071;53.082;18.218;2022-12-18T07:01:57;103169.73;;;-4.14;79.92
75551;BME280;65071;53.082;18.218;2022-12-18T07:04:28;103175.89;;;-4.20;79.97
75551;BME280;65071;53.082;18.218;2022-12-18T07:06:55;103175.71;;;-4.25;79.86
75551;BME280;65071;53.082;18.218;2022-12-18T07:09:21;103183.80;;;-4.29;79.89
75551;BME280;65071;53.082;18.218;2022-12-18T07:11:48;103191.34;;;-4.33;79.84
75551;BME280;65071;53.082;18.218;2022-12-18T07:14:14;103196.44;;;-4.30;79.64
75551;BME280;65071;53.082;18.218;2022-12-18T07:16:41;103198.73;;;-4.22;79.59
75551;BME280;65071;53.082;18.218;2022-12-18T07:19:07;103203.65;;;-4.18;79.86
75551;BME280;65071;53.082;18.218;2022-12-18T07:21:34;103206.81;;;-4.14;79.99
75551;BME280;65071;53.082;18.218;2022-12-18T07:24:01;103207.86;;;-4.16;80.36
75551;BME280;65071;53.082;18.218;2022-12-18T07:26:27;103208.40;;;-4.19;80.12
75551;BME280;65071;53.082;18.218;2022-12-18T07:28:55;103214.89;;;-4.21;79.93
75551;BME280;65071;53.082;18.218;2022-12-18T07:31:24;103221.21;;;-4.22;79.63
75551;BME280;65071;53.082;18.218;2022-12-18T07:33:51;103221.20;;;-4.23;79.70
75551;BME280;65071;53.082;18.218;2022-12-18T07:36:19;103218.05;;;-4.23;79.36
75551;BME280;65071;53.082;18.218;2022-12-18T07:38:49;103217.36;;;-4.22;79.36
75551;BME280;65071;53.082;18.218;2022-12-18T07:41:16;103220.69;;;-4.24;79.61
75551;BME280;65071;53.082;18.218;2022-12-18T07:43:43;103222.96;;;-4.31;79.55
75551;BME280;65071;53.082;18.218;2022-12-18T07:46:11;103224.73;;;-4.41;79.83
75551;BME280;65071;53.082;18.218;2022-12-18T07:48:43;103231.02;;;-4.44;79.85
75551;BME280;65071;53.082;18.218;2022-12-18T07:51:11;103234.19;;;-4.47;79.72
75551;BME280;65071;53.082;18.218;2022-12-18T07:53:39;103238.75;;;-4.46;79.51
75551;BME280;65071;53.082;18.218;2022-12-18T07:56:08;103244.39;;;-4.43;79.62
75551;BME280;65071;53.082;18.218;2022-12-18T07:58:36;103249.84;;;-4.31;79.71
75551;BME280;65071;53.082;18.218;2022-12-18T08:01:08;103249.85;;;-4.27;79.54
75551;BME280;65071;53.082;18.218;2022-12-18T08:03:36;103255.83;;;-4.26;79.55
75551;BME280;65071;53.082;18.218;2022-12-18T08:06:04;103255.82;;;-4.28;79.35
75551;BME280;65071;53.082;18.218;2022-12-18T08:08:31;103253.52;;;-4.35;79.40
75551;BME280;65071;53.082;18.218;2022-12-18T08:10:58;103247.73;;;-4.41;79.45
75551;BME280;65071;53.082;18.218;2022-12-18T08:13:25;103248.95;;;-4.42;79.45
75551;BME280;65071;53.082;18.218;2022-12-18T08:15:58;103253.34;;;-4.45;79.37
75551;BME280;65071;53.082;18.218;2022-12-18T08:18:25;103262.65;;;-4.42;79.22
75551;BME280;65071;53.082;18.218;2022-12-18T08:20:52;103272.50;;;-4.32;79.05
75551;BME280;65071;53.082;18.218;2022-12-18T08:23:19;103279.20;;;-4.20;79.17
75551;BME280;65071;53.082;18.218;2022-12-18T08:25:46;103282.55;;;-4.08;79.22
75551;BME280;65071;53.082;18.218;2022-12-18T08:28:13;103283.95;;;-3.97;79.19
75551;BME280;65071;53.082;18.218;2022-12-18T08:30:39;103283.61;;;-3.94;78.90
75551;BME280;65071;53.082;18.218;2022-12-18T08:33:06;103286.25;;;-3.90;78.57
75551;BME280;65071;53.082;18.218;2022-12-18T08:35:36;103293.45;;;-3.78;78.61
75551;BME280;65071;53.082;18.218;2022-12-18T08:38:03;103295.57;;;-3.69;78.48
75551;BME280;65071;53.082;18.218;2022-12-18T08:40:30;103296.27;;;-3.71;78.05
75551;BME280;65071;53.082;18.218;2022-12-18T08:42:57;103302.95;;;-3.69;78.07
75551;BME280;65071;53.082;18.218;2022-12-18T08:45:42;103300.99;;;-3.55;78.08
75551;BME280;65071;53.082;18.218;2022-12-18T08:48:08;103305.02;;;-3.30;77.99
75551;BME280;65071;53.082;18.218;2022-12-18T08:50:35;103310.27;;;-3.24;77.46
75551;BME280;65071;53.082;18.218;2022-12-18T08:53:01;103307.11;;;-3.21;77.35
75551;BME280;65071;53.082;18.218;2022-12-18T08:55:28;103305.14;;;-3.11;76.85
75551;BME280;65071;53.082;18.218;2022-12-18T08:57:55;103310.20;;;-2.98;76.25
75551;BME280;65071;53.082;18.218;2022-12-18T09:00:21;103318.47;;;-2.91;75.62
75551;BME280;65071;53.082;18.218;2022-12-18T09:02:48;103319.13;;;-2.76;76.11
75551;BME280;65071;53.082;18.218;2022-12-18T09:05:15;103316.59;;;-2.60;75.32
75551;BME280;65071;53.082;18.218;2022-12-18T09:07:42;103302.52;;;-2.64;74.93
75551;BME280;65071;53.082;18.218;2022-12-18T09:10:08;103302.17;;;-2.71;75.08
75551;BME280;65071;53.082;18.218;2022-12-18T09:12:35;103303.33;;;-2.92;74.32
75551;BME280;65071;53.082;18.218;2022-12-18T09:15:02;103310.06;;;-3.07;74.60
75551;BME280;65071;53.082;18.218;2022-12-18T09:17:29;103308.48;;;-3.07;75.27
75551;BME280;65071;53.082;18.218;2022-12-18T09:19:55;103307.75;;;-2.98;75.12
75551;BME280;65071;53.082;18.218;2022-12-18T09:22:22;103318.63;;;-2.88;74.86
75551;BME280;65071;53.082;18.218;2022-12-18T09:24:48;103313.98;;;-2.68;74.52
75551;BME280;65071;53.082;18.218;2022-12-18T09:27:15;103307.34;;;-2.42;74.91
75551;BME280;65071;53.082;18.218;2022-12-18T09:29:41;103299.56;;;-2.12;74.60
75551;BME280;65071;53.082;18.218;2022-12-18T09:32:08;103294.17;;;-1.76;73.33
75551;BME280;65071;53.082;18.218;2022-12-18T09:34:35;103282.29;;;-1.69;72.49
75551;BME280;65071;53.082;18.218;2022-12-18T09:37:02;103277.84;;;-1.64;72.78
75551;BME280;65071;53.082;18.218;2022-12-18T09:39:28;103274.42;;;-1.58;72.63
75551;BME280;65071;53.082;18.218;2022-12-18T09:41:57;103273.00;;;-1.57;72.50
75551;BME280;65071;53.082;18.218;2022-12-18T09:44:54;103276.73;;;-1.40;72.69
75551;BME280;65071;53.082;18.218;2022-12-18T09:47:30;103278.36;;;-0.68;72.46
75551;BME280;65071;53.082;18.218;2022-12-18T09:50:05;103274.67;;;0.02;70.73
75551;BME280;65071;53.082;18.218;2022-12-18T09:52:44;103272.05;;;0.80;67.73
75551;BME280;65071;53.082;18.218;2022-12-18T09:57:53;103283.80;;;0.39;67.57
75551;BME280;65071;53.082;18.218;2022-12-18T10:00:23;103282.31;;;0.00;69.07
75551;BME280;65071;53.082;18.218;2022-12-18T10:02:53;103293.16;;;-0.26;69.98
75551;BME280;65071;53.082;18.218;2022-12-18T10:05:37;103284.02;;;-0.55;69.25
75551;BME280;65071;53.082;18.218;2022-12-18T10:08:13;103284.07;;;-0.86;70.11
75551;BME280;65071;53.082;18.218;2022-12-18T10:10:51;103282.05;;;-0.95;69.61
75551;BME280;65071;53.082;18.218;2022-12-18T10:13:42;103276.14;;;-1.19;68.48
75551;BME280;65071;53.082;18.218;2022-12-18T10:16:16;103277.80;;;-1.23;69.65
75551;BME280;65071;53.082;18.218;2022-12-18T10:21:55;103286.55;;;-1.51;70.22
75551;BME280;65071;53.082;18.218;2022-12-18T10:24:41;103290.67;;;-1.59;70.42
75551;BME280;65071;53.082;18.218;2022-12-18T10:27:16;103294.27;;;-1.66;70.74
75551;BME280;65071;53.082;18.218;2022-12-18T10:29:44;103294.78;;;-1.64;69.94
75551;BME280;65071;53.082;18.218;2022-12-18T10:32:17;103301.62;;;-1.80;70.16
75551;BME280;65071;53.082;18.218;2022-12-18T10:34:49;103308.14;;;-1.80;70.42
75551;BME280;65071;53.082;18.218;2022-12-18T10:37:19;103306.10;;;-1.89;69.89
75551;BME280;65071;53.082;18.218;2022-12-18T10:40:06;103302.84;;;-2.01;70.31
75551;BME280;65071;53.082;18.218;2022-12-18T10:42:33;103305.59;;;-2.18;69.67
75551;BME280;65071;53.082;18.218;2022-12-18T10:45:26;103313.80;;;-2.33;69.93
75551;BME280;65071;53.082;18.218;2022-12-18T10:47:53;103319.16;;;-2.46;70.09
75551;BME280;65071;53.082;18.218;2022-12-18T10:50:28;103316.54;;;-2.53;70.25
75551;BME280;65071;53.082;18.218;2022-12-18T10:52:57;103308.08;;;-2.50;70.53
75551;BME280;65071;53.082;18.218;2022-12-18T10:55:33;103307.78;;;-2.63;70.50
75551;BME280;65071;53.082;18.218;2022-12-18T10:58:31;103310.88;;;-2.85;70.94
75551;BME280;65071;53.082;18.218;2022-12-18T11:03:58;103316.02;;;-2.96;71.16
75551;BME280;65071;53.082;18.218;2022-12-18T11:06:25;103318.29;;;-2.91;71.13
75551;BME280;65071;53.082;18.218;2022-12-18T11:09:06;103321.67;;;-3.03;70.86
75551;BME280;65071;53.082;18.218;2022-12-18T11:11:33;103334.36;;;-3.10;71.28
75551;BME280;65071;53.082;18.218;2022-12-18T11:14:06;103339.81;;;-3.09;71.27
75551;BME280;65071;53.082;18.218;2022-12-18T11:16:46;103345.10;;;-3.12;71.67
75551;BME280;65071;53.082;18.218;2022-12-18T11:19:33;103344.05;;;-3.13;71.56
75551;BME280;65071;53.082;18.218;2022-12-18T11:22:24;103342.30;;;-3.18;71.61
75551;BME280;65071;53.082;18.218;2022-12-18T11:25:16;103340.20;;;-3.23;71.78
75551;BME280;65071;53.082;18.218;2022-12-18T11:27:52;103339.86;;;-3.32;71.64
75551;BME280;65071;53.082;18.218;2022-12-18T11:30:36;103338.27;;;-3.39;71.84
75551;BME280;65071;53.082;18.218;2022-12-18T11:33:06;103340.03;;;-3.30;71.84
75551;BME280;65071;53.082;18.218;2022-12-18T11:35:51;103344.42;;;-3.22;71.61
75551;BME280;65071;53.082;18.218;2022-12-18T11:38:25;103341.41;;;-3.19;71.60
75551;BME280;65071;53.082;18.218;2022-12-18T11:40:58;103331.92;;;-3.20;71.82
75551;BME280;65071;53.082;18.218;2022-12-18T11:44:01;103331.05;;;-3.22;72.14
75551;BME280;65071;53.082;18.218;2022-12-18T11:46:45;103330.52;;;-3.20;72.14
75551;BME280;65071;53.082;18.218;2022-12-18T11:51:50;103327.13;;;-3.09;72.10
75551;BME280;65071;53.082;18.218;2022-12-18T11:54:18;103328.55;;;-3.12;71.66
75551;BME280;65071;53.082;18.218;2022-12-18T11:56:51;103322.59;;;-3.17;71.81
75551;BME280;65071;53.082;18.218;2022-12-18T12:10:42;103328.95;;;-3.32;72.20
75551;BME280;65071;53.082;18.218;2022-12-18T12:13:21;103331.77;;;-3.38;72.13
75551;BME280;65071;53.082;18.218;2022-12-18T12:16:10;103332.12;;;-3.44;72.44
75551;BME280;65071;53.082;18.218;2022-12-18T12:19:35;103335.65;;;-3.55;72.78
75551;BME280;65071;53.082;18.218;2022-12-18T12:27:47;103355.30;;;-4.02;72.96
75551;BME280;65071;53.082;18.218;2022-12-18T12:30:48;103361.96;;;-4.15;73.06
75551;BME280;65071;53.082;18.218;2022-12-18T12:33:45;103366.31;;;-4.26;73.21
75551;BME280;65071;53.082;18.218;2022-12-18T12:39:07;103371.38;;;-4.32;73.54
75551;BME280;65071;53.082;18.218;2022-12-18T12:41:36;103376.49;;;-4.27;73.55
75551;BME280;65071;53.082;18.218;2022-12-18T12:44:25;103375.80;;;-4.24;73.70
75551;BME280;65071;53.082;18.218;2022-12-18T12:46:57;103382.30;;;-4.24;73.83
75551;BME280;65071;53.082;18.218;2022-12-18T12:49:29;103389.65;;;-4.35;73.82
75551;BME280;65071;53.082;18.218;2022-12-18T12:52:04;103392.62;;;-4.40;73.52
75551;BME280;65071;53.082;18.218;2022-12-18T12:54:33;103397.66;;;-4.53;73.68
75551;BME280;65071;53.082;18.218;2022-12-18T12:57:15;103403.98;;;-4.56;74.06
75551;BME280;65071;53.082;18.218;2022-12-18T12:59:59;103404.98;;;-4.61;74.29
75551;BME280;65071;53.082;18.218;2022-12-18T13:05:23;103405.64;;;-4.71;74.23
75551;BME280;65071;53.082;18.218;2022-12-18T13:13:00;103411.40;;;-4.76;74.56
75551;BME280;65071;53.082;18.218;2022-12-18T13:15:48;103409.67;;;-4.71;74.88
75551;BME280;65071;53.082;18.218;2022-12-18T13:18:19;103411.99;;;-4.65;75.09
75551;BME280;65071;53.082;18.218;2022-12-18T13:21:16;103414.61;;;-4.67;75.20
75551;BME280;65071;53.082;18.218;2022-12-18T13:23:36;103416.50;;;-4.73;74.78
75551;BME280;65071;53.082;18.218;2022-12-18T13:31:14;103417.12;;;-4.89;75.27
75551;BME280;65071;53.082;18.218;2022-12-18T13:33:45;103418.67;;;-4.92;75.97
75551;BME280;65071;53.082;18.218;2022-12-18T13:38:46;103410.21;;;-4.99;75.79
75551;BME280;65071;53.082;18.218;2022-12-18T13:41:26;103406.67;;;-5.02;75.67
75551;BME280;65071;53.082;18.218;2022-12-18T13:43:55;103409.52;;;-4.99;75.54
75551;BME280;65071;53.082;18.218;2022-12-18T13:46:45;103406.30;;;-5.06;75.59
75551;BME280;65071;53.082;18.218;2022-12-18T13:51:44;103409.70;;;-4.95;75.68
75551;BME280;65071;53.082;18.218;2022-12-18T13:56:51;103417.98;;;-4.90;76.17
75551;BME280;65071;53.082;18.218;2022-12-18T13:59:24;103412.66;;;-4.98;76.04
75551;BME280;65071;53.082;18.218;2022-12-18T14:01:56;103410.67;;;-5.06;76.16
75551;BME280;65071;53.082;18.218;2022-12-18T14:04:27;103415.21;;;-5.12;76.12
75551;BME280;65071;53.082;18.218;2022-12-18T14:07:18;103410.92;;;-5.22;76.30
75551;BME280;65071;53.082;18.218;2022-12-18T14:09:45;103413.17;;;-5.26;76.62
75551;BME280;65071;53.082;18.218;2022-12-18T14:12:16;103413.30;;;-5.32;76.73
75551;BME280;65071;53.082;18.218;2022-12-18T14:15:03;103415.16;;;-5.39;76.50